Time;durP1;ratioP1;P1;durP2;ratioP2;P2;SDS_P1;SDS_P2;PMS_P1;PMS_P2;Temp;Humidity;BMP_temperature;BMP_pressure;BME280_temperature;BME280_humidity;BME280_pressure;Samples;Min_cycle;Max_cycle;Signal;HPM_P1;HPM_P2
2022/04/17 00:01:07;;;;;;;7.63;2.17;;;18.20;41.90;;;;;;5031835;28;20229;-85
2022/04/17 00:03:34;;;;;;;6.55;2.13;;;18.20;42.10;;;;;;5015502;28;20182;-85
2022/04/17 00:06:01;;;;;;;6.18;1.73;;;18.20;42.20;;;;;;5015299;28;20182;-85
2022/04/17 00:08:28;;;;;;;7.35;2.20;;;18.20;42.00;;;;;;5015040;28;20224;-84
2022/04/17 00:10:55;;;;;;;7.93;2.08;;;18.20;42.10;;;;;;5014843;28;20190;-85
2022/04/17 00:13:22;;;;;;;5.22;1.80;;;18.20;42.00;;;;;;5031535;28;20672;-84
2022/04/17 00:15:49;;;;;;;5.97;2.08;;;18.20;42.10;;;;;;5014812;28;20187;-85
2022/04/17 00:18:15;;;;;;;7.05;2.10;;;18.20;42.20;;;;;;5015171;28;20182;-85
2022/04/17 00:20:41;;;;;;;7.90;2.33;;;18.20;42.10;;;;;;5016400;28;20624;-84
2022/04/17 00:23:07;;;;;;;8.00;2.35;;;18.10;42.30;;;;;;5015778;28;20159;-85
2022/04/17 00:25:32;;;;;;;5.03;1.77;;;18.20;42.30;;;;;;5032259;28;20163;-85
2022/04/17 00:28:00;;;;;;;7.38;2.22;;;18.20;42.20;;;;;;5015770;28;20259;-85
2022/04/17 00:30:27;;;;;;;6.32;2.00;;;18.20;42.20;;;;;;5014850;28;20273;-85
2022/04/17 00:32:54;;;;;;;6.47;1.80;;;18.20;42.40;;;;;;5031378;28;20343;-84
2022/04/17 00:35:21;;;;;;;6.55;2.00;;;18.20;42.40;;;;;;5014933;28;20186;-85
2022/04/17 00:37:48;;;;;;;6.32;2.17;;;18.10;42.10;;;;;;5014649;28;20244;-85
2022/04/17 00:40:15;;;;;;;6.70;2.00;;;18.10;42.30;;;;;;5014670;28;20189;-85
2022/04/17 00:42:42;;;;;;;5.88;1.90;;;18.20;42.40;;;;;;5014641;28;20217;-85
2022/04/17 00:45:10;;;;;;;6.50;1.95;;;18.10;42.20;;;;;;5014640;28;20190;-84
2022/04/17 00:47:35;;;;;;;6.95;1.90;;;18.10;42.30;;;;;;5030677;28;20590;-85
2022/04/17 00:50:02;;;;;;;7.20;2.60;;;18.10;42.20;;;;;;5031890;28;20165;-85
2022/04/17 00:52:28;;;;;;;6.82;2.00;;;18.20;42.40;;;;;;5014394;28;20672;-85
2022/04/17 00:54:55;;;;;;;5.40;1.90;;;18.10;42.40;;;;;;5015494;28;20163;-85
2022/04/17 00:57:21;;;;;;;5.38;1.77;;;18.20;42.40;;;;;;5030929;28;20193;-85
2022/04/17 00:59:49;;;;;;;4.93;2.00;;;18.20;42.40;;;;;;5014621;28;20178;-84
2022/04/17 01:02:16;;;;;;;8.27;2.03;;;18.10;42.30;;;;;;5031087;28;20187;-85
2022/04/17 01:04:43;;;;;;;5.95;1.80;;;18.10;42.20;;;;;;5015184;28;20530;-84
2022/04/17 01:07:10;;;;;;;6.38;2.33;;;18.20;42.20;;;;;;5014796;28;20232;-85
2022/04/17 01:09:37;;;;;;;4.70;1.98;;;18.20;42.50;;;;;;5032830;28;20218;-84
2022/04/17 01:12:08;;;;;;;6.90;2.10;;;18.20;42.30;;;;;;5035696;28;20533;-85
2022/04/17 01:14:41;;;;;;;6.97;1.88;;;18.10;42.40;;;;;;5052571;28;20167;-85
2022/04/17 01:17:07;;;;;;;4.50;1.58;;;18.10;42.30;;;;;;5034893;28;20641;-84
2022/04/17 01:19:37;;;;;;;6.20;1.98;;;18.10;42.50;;;;;;5035857;28;20595;-85
2022/04/17 01:22:05;;;;;;;5.65;2.03;;;18.10;42.40;;;;;;5035862;28;20163;-85
2022/04/17 01:27:09;;;;;;;5.93;1.73;;;18.10;42.40;;;;;;5035571;28;20198;-84
2022/04/17 01:29:38;;;;;;;3.45;1.67;;;18.10;42.50;;;;;;5019000;28;20193;-84
2022/04/17 01:32:08;;;;;;;4.68;1.70;;;18.10;42.50;;;;;;5018585;28;20654;-85
2022/04/17 01:34:34;;;;;;;5.38;2.33;;;18.10;42.50;;;;;;5034872;28;20664;-84
2022/04/17 01:37:01;;;;;;;5.78;1.95;;;18.10;42.50;;;;;;5019725;28;20171;-85
2022/04/17 01:39:28;;;;;;;4.15;1.90;;;18.10;42.50;;;;;;5035170;28;20584;-85
2022/04/17 01:41:58;;;;;;;4.38;2.05;;;18.10;42.40;;;;;;5035176;28;20529;-85
2022/04/17 01:44:27;;;;;;;5.53;2.05;;;18.10;42.50;;;;;;5018375;28;20707;-85
2022/04/17 01:46:52;;;;;;;7.78;2.25;;;18.10;42.50;;;;;;5034648;28;20626;-85
2022/04/17 01:49:19;;;;;;;5.22;2.10;;;18.10;42.50;;;;;;5018902;28;20162;-85
2022/04/17 01:51:46;;;;;;;5.60;1.88;;;18.10;42.60;;;;;;5035200;28;20159;-85
2022/04/17 01:54:16;;;;;;;5.38;1.73;;;18.10;42.60;;;;;;5034968;28;20266;-85
2022/04/17 01:56:42;;;;;;;4.32;1.90;;;18.10;42.60;;;;;;5034852;28;20513;-85
2022/04/17 01:59:09;;;;;;;5.32;2.20;;;18.10;42.60;;;;;;5035147;28;20159;-85
2022/04/17 02:01:37;;;;;;;5.18;1.88;;;18.10;43.40;;;;;;5034683;28;20163;-85
2022/04/17 02:04:04;;;;;;;4.20;1.75;;;18.10;42.70;;;;;;5034909;28;20158;-85
2022/04/17 02:06:30;;;;;;;4.57;1.98;;;18.10;42.80;;;;;;5034796;28;20174;-85
2022/04/17 02:08:56;;;;;;;4.63;1.77;;;18.10;42.70;;;;;;5034656;28;20238;-84
2022/04/17 02:11:24;;;;;;;7.20;2.20;;;18.10;42.50;;;;;;5035882;28;20667;-84
2022/04/17 02:13:50;;;;;;;4.22;2.28;;;18.10;42.70;;;;;;5035844;28;20158;-85
2022/04/17 02:16:17;;;;;;;6.85;2.10;;;18.10;42.70;;;;;;5034635;28;20151;-85
2022/04/17 02:18:44;;;;;;;7.35;1.90;;;18.10;42.60;;;;;;5034591;28;20211;-85
2022/04/17 02:21:11;;;;;;;3.75;1.83;;;18.00;42.80;;;;;;5034338;28;20216;-85
2022/04/17 02:23:37;;;;;;;5.07;2.05;;;18.10;42.70;;;;;;5034956;28;20175;-84
2022/04/17 02:26:03;;;;;;;6.32;1.90;;;18.00;42.60;;;;;;5034260;28;20166;-85
2022/04/17 02:28:34;;;;;;;5.47;1.83;;;18.00;42.70;;;;;;5050899;28;20199;-85
2022/04/17 02:31:01;;;;;;;5.10;1.90;;;18.10;42.60;;;;;;5034620;28;20162;-84
2022/04/17 02:33:27;;;;;;;5.53;1.85;;;18.10;42.70;;;;;;5034523;28;20650;-85
2022/04/17 02:35:54;;;;;;;5.05;1.70;;;18.10;42.70;;;;;;5034369;28;20159;-84
2022/04/17 02:38:19;;;;;;;6.20;1.92;;;18.00;42.80;;;;;;5034100;28;20155;-85
2022/04/17 02:40:45;;;;;;;6.78;2.08;;;18.00;42.80;;;;;;5017551;28;20169;-85
2022/04/17 02:43:12;;;;;;;3.53;1.60;;;18.10;42.70;;;;;;5034107;28;20610;-85
2022/04/17 02:45:39;;;;;;;5.22;1.60;;;18.00;43.40;;;;;;5033919;28;20213;-85
2022/04/17 02:48:05;;;;;;;7.15;2.03;;;18.00;42.60;;;;;;5016202;28;20230;-85
2022/04/17 02:50:32;;;;;;;4.72;1.83;;;18.00;42.70;;;;;;5017420;28;20280;-85
2022/04/17 02:53:01;;;;;;;5.90;1.95;;;18.00;42.70;;;;;;5016663;28;20182;-85
2022/04/17 02:55:28;;;;;;;2.78;1.58;;;18.00;42.80;;;;;;5016885;28;20190;-85
2022/04/17 02:57:56;;;;;;;5.03;1.77;;;18.00;42.80;;;;;;5033356;28;20187;-85
2022/04/17 03:00:24;;;;;;;5.60;1.80;;;18.00;42.80;;;;;;5016743;28;20191;-85
2022/04/17 03:05:36;;;;;;;5.90;1.67;;;18.10;42.80;;;;;;5033495;28;20333;-85
2022/04/17 03:08:08;;;;;;;4.53;1.48;;;18.00;42.80;;;;;;5033564;28;20244;-85
2022/04/17 03:10:35;;;;;;;6.60;1.88;;;18.00;42.80;;;;;;5033484;28;20242;-85
2022/04/17 03:13:01;;;;;;;5.30;1.70;;;18.00;42.80;;;;;;5034886;28;20166;-85
2022/04/17 03:15:27;;;;;;;6.72;2.00;;;18.00;42.80;;;;;;5034832;28;20159;-85
2022/04/17 03:17:53;;;;;;;5.40;1.85;;;18.10;42.90;;;;;;5033459;28;20519;-85
2022/04/17 03:20:19;;;;;;;5.65;1.67;;;18.00;43.00;;;;;;5033395;28;20618;-84
2022/04/17 03:22:44;;;;;;;3.85;1.70;;;17.90;42.80;;;;;;5033263;28;20720;-85
2022/04/17 03:25:11;;;;;;;4.22;1.70;;;18.00;42.90;;;;;;5017162;28;20178;-85
2022/04/17 03:27:40;;;;;;;5.25;1.95;;;18.00;42.90;;;;;;5033079;28;20186;-85
2022/04/17 03:30:09;;;;;;;5.90;2.00;;;18.10;43.00;;;;;;5016137;28;20281;-85
2022/04/17 03:32:37;;;;;;;4.35;1.80;;;18.00;42.90;;;;;;5015515;28;20244;-85
2022/04/17 03:35:04;;;;;;;5.55;1.65;;;18.00;42.80;;;;;;5015881;28;20175;-85
2022/04/17 03:37:32;;;;;;;7.65;2.05;;;18.00;42.80;;;;;;5015816;28;20638;-85
2022/04/17 03:39:59;;;;;;;3.75;1.80;;;17.90;42.90;;;;;;5015994;28;20597;-85
2022/04/17 03:42:26;;;;;;;4.03;1.90;;;18.00;42.90;;;;;;5015679;28;20181;-85
2022/04/17 03:44:54;;;;;;;5.32;1.80;;;18.00;43.10;;;;;;5015604;28;20178;-85
2022/04/17 03:47:19;;;;;;;4.07;1.63;;;18.00;43.10;;;;;;5031730;28;20214;-84
2022/04/17 03:49:46;;;;;;;5.90;1.67;;;18.00;42.90;;;;;;5032899;28;20515;-85
2022/04/17 03:52:15;;;;;;;5.00;1.63;;;17.90;42.90;;;;;;5032174;28;20182;-84
2022/04/17 03:54:42;;;;;;;5.30;1.73;;;17.90;43.00;;;;;;5032129;28;20189;-85
2022/04/17 03:57:09;;;;;;;5.68;1.85;;;18.00;43.10;;;;;;5031568;28;20178;-85
2022/04/17 03:59:36;;;;;;;5.75;1.80;;;18.00;43.10;;;;;;5015583;28;20604;-85
2022/04/17 04:02:03;;;;;;;4.63;1.73;;;18.00;43.10;;;;;;5015528;28;20649;-84
2022/04/17 04:04:29;;;;;;;4.82;1.85;;;17.90;43.00;;;;;;5032480;28;20257;-85
2022/04/17 04:06:56;;;;;;;3.60;1.85;;;18.00;43.00;;;;;;5032502;28;20166;-85
2022/04/17 04:09:22;;;;;;;5.07;2.05;;;17.90;43.70;;;;;;5032301;28;20294;-85
2022/04/17 04:11:48;;;;;;;2.92;1.50;;;18.00;43.00;;;;;;5032579;28;20621;-85
2022/04/17 04:14:13;;;;;;;4.78;1.80;;;17.90;43.10;;;;;;5032743;28;20159;-85
2022/04/17 04:16:40;;;;;;;5.75;1.90;;;17.90;43.00;;;;;;5049154;28;20249;-84
2022/04/17 04:19:06;;;;;;;3.90;1.70;;;17.90;43.10;;;;;;5032264;28;20249;-85
2022/04/17 04:21:32;;;;;;;6.40;1.77;;;18.00;43.00;;;;;;5049264;28;20249;-84
2022/04/17 04:24:01;;;;;;;3.38;1.67;;;17.90;43.00;;;;;;5032176;28;20675;-85
2022/04/17 04:26:30;;;;;;;4.72;1.55;;;18.00;43.80;;;;;;5015398;28;20178;-84
2022/04/17 04:28:56;;;;;;;4.20;1.80;;;18.00;43.10;;;;;;5032308;28;20202;-85
2022/04/17 04:31:22;;;;;;;5.22;1.85;;;18.00;43.00;;;;;;5032033;28;20163;-85
2022/04/17 04:33:48;;;;;;;5.22;1.77;;;18.00;43.10;;;;;;5015620;28;20266;-84
2022/04/17 04:36:14;;;;;;;4.15;1.70;;;17.90;43.00;;;;;;5032140;28;20641;-85
2022/04/17 04:38:40;;;;;;;4.50;1.67;;;18.00;43.10;;;;;;5032033;28;20253;-85
2022/04/17 04:41:06;;;;;;;3.58;1.83;;;18.00;43.20;;;;;;5031959;28;20629;-85
2022/04/17 04:43:32;;;;;;;6.13;1.60;;;18.00;43.80;;;;;;5031728;28;20163;-85
2022/04/17 04:46:13;;;;;;;3.72;1.30;;;18.00;43.00;;;;;;5032265;28;20169;-85
2022/04/17 04:51:21;;;;;;;3.78;1.70;;;17.90;43.00;;;;;;5032042;28;20256;-85
2022/04/17 04:53:47;;;;;;;2.58;1.70;;;17.90;43.10;;;;;;5032691;28;20181;-84
2022/04/17 04:56:13;;;;;;;5.43;2.03;;;17.90;43.20;;;;;;5032378;28;20233;-85
2022/04/17 04:58:40;;;;;;;3.85;1.70;;;17.90;43.10;;;;;;5032271;28;20183;-84
2022/04/17 05:01:06;;;;;;;4.55;1.63;;;17.90;43.20;;;;;;5031849;28;20240;-85
2022/04/17 05:03:32;;;;;;;5.03;1.90;;;17.90;43.20;;;;;;5031784;28;20633;-85
2022/04/17 05:05:58;;;;;;;7.22;2.08;;;17.90;43.20;;;;;;5048881;28;20212;-85
2022/04/17 05:08:24;;;;;;;4.75;1.75;;;17.90;43.20;;;;;;5031773;28;20190;-85
2022/04/17 05:10:50;;;;;;;4.18;1.80;;;17.90;43.30;;;;;;5031848;28;20178;-85
2022/04/17 05:13:19;;;;;;;4.97;1.65;;;17.90;43.30;;;;;;5031844;28;20159;-85
2022/04/17 05:15:45;;;;;;;3.75;1.80;;;17.90;43.10;;;;;;5030987;28;20245;-85
2022/04/17 05:18:11;;;;;;;5.72;2.00;;;17.90;43.10;;;;;;5032074;28;20629;-85
2022/04/17 05:20:37;;;;;;;5.50;1.80;;;17.90;43.20;;;;;;5032167;28;20614;-85
2022/04/17 05:23:26;;;;;;;2.97;1.60;;;17.90;43.30;;;;;;5031970;28;20170;-84
2022/04/17 05:25:53;;;;;;;4.28;1.88;;;17.90;43.20;;;;;;5024190;28;20170;-84
2022/04/17 05:28:20;;;;;;;5.35;1.88;;;18.00;43.20;;;;;;5019206;28;20202;-85
2022/04/17 05:30:47;;;;;;;6.75;2.00;;;17.90;43.30;;;;;;5034138;28;20669;-85
2022/04/17 05:33:13;;;;;;;3.88;1.77;;;17.90;43.30;;;;;;5017304;28;20178;-85
2022/04/17 05:35:39;;;;;;;3.90;2.13;;;18.00;43.30;;;;;;5051297;28;20648;-85
2022/04/17 05:38:05;;;;;;;3.78;1.30;;;17.90;43.20;;;;;;5035255;28;20177;-85
2022/04/17 05:40:35;;;;;;;4.35;1.70;;;18.00;43.20;;;;;;5051449;28;20163;-86
2022/04/17 05:43:02;;;;;;;4.93;1.50;;;17.90;43.20;;;;;;5051985;28;20261;-85
2022/04/17 05:45:28;;;;;;;4.43;1.80;;;17.90;43.20;;;;;;5034723;28;20212;-86
2022/04/17 05:47:55;;;;;;;4.25;1.40;;;18.00;43.20;;;;;;5051149;28;20283;-86
2022/04/17 05:50:21;;;;;;;5.15;1.80;;;17.90;43.30;;;;;;5034664;28;20177;-85
2022/04/17 05:52:47;;;;;;;6.40;1.73;;;18.00;43.20;;;;;;5034585;28;20178;-86
2022/04/17 05:55:12;;;;;;;3.70;1.75;;;17.90;43.30;;;;;;5052292;28;20635;-86
2022/04/17 05:57:38;;;;;;;3.03;1.58;;;18.00;43.20;;;;;;5038251;28;20166;-86
2022/04/17 06:00:08;;;;;;;6.38;1.80;;;18.00;43.10;;;;;;5055113;28;20154;-86
2022/04/17 06:02:35;;;;;;;3.95;1.80;;;17.90;43.00;;;;;;5038656;28;20194;-85
2022/04/17 06:05:03;;;;;;;4.10;1.55;;;18.00;43.10;;;;;;5054767;28;20150;-85
2022/04/17 06:07:29;;;;;;;2.83;1.50;;;18.00;43.10;;;;;;5055243;28;20194;-87
2022/04/17 06:09:54;;;;;;;5.10;1.48;;;18.10;43.10;;;;;;5054862;28;20165;-85
2022/04/17 06:12:20;;;;;;;4.40;1.55;;;18.10;43.00;;;;;;5038847;28;20645;-85
2022/04/17 06:14:46;;;;;;;4.95;1.63;;;18.10;43.00;;;;;;5046751;28;20162;-85
2022/04/17 06:17:12;;;;;;;7.07;2.00;;;18.10;43.00;;;;;;5058079;28;20154;-85
2022/04/17 06:19:37;;;;;;;4.22;1.70;;;18.10;43.00;;;;;;5075864;28;20157;-85
2022/04/17 06:22:04;;;;;;;4.18;1.80;;;18.10;42.90;;;;;;5057960;28;20189;-85
2022/04/17 06:24:29;;;;;;;4.45;1.48;;;18.10;42.60;;;;;;5058045;28;20659;-85
2022/04/17 06:26:59;;;;;;;4.93;1.80;;;18.10;42.50;;;;;;5057928;28;20181;-87
2022/04/17 06:29:25;;;;;;;4.10;1.50;;;18.20;42.70;;;;;;5057260;28;20221;-85
2022/04/17 06:31:50;;;;;;;5.13;1.80;;;18.20;42.90;;;;;;5041405;28;20609;-86
2022/04/17 06:34:16;;;;;;;5.50;1.60;;;18.20;42.90;;;;;;5075298;28;20157;-86
2022/04/17 06:36:42;;;;;;;5.75;1.88;;;18.20;43.00;;;;;;5057547;28;20154;-85
2022/04/17 06:39:08;;;;;;;5.10;1.95;;;18.20;42.90;;;;;;5074293;28;20166;-85
2022/04/17 06:41:34;;;;;;;3.45;1.90;;;18.10;43.10;;;;;;5054634;28;20165;-84
2022/04/17 06:44:00;;;;;;;2.97;1.40;;;18.10;43.20;;;;;;5055456;28;20479;-85
2022/04/17 06:46:26;;;;;;;3.95;1.48;;;18.10;43.20;;;;;;5055905;28;20223;-85
2022/04/17 06:48:53;;;;;;;4.00;1.60;;;18.10;43.10;;;;;;5071773;28;20221;-85
2022/04/17 06:51:23;;;;;;;3.08;1.73;;;18.10;43.00;;;;;;5055551;28;20620;-85
2022/04/17 06:53:50;;;;;;;3.95;1.65;;;18.20;43.10;;;;;;5056162;28;20173;-85
2022/04/17 06:56:18;;;;;;;4.10;1.40;;;18.20;43.20;;;;;;5073956;28;20153;-85
2022/04/17 06:58:48;;;;;;;2.75;1.60;;;18.20;43.20;;;;;;5057433;28;20178;-85
2022/04/17 07:01:14;;;;;;;5.88;2.00;;;18.20;43.10;;;;;;5057653;28;20165;-85
2022/04/17 07:03:42;;;;;;;4.07;1.70;;;18.20;43.10;;;;;;5057374;28;20169;-85
2022/04/17 07:06:08;;;;;;;5.97;1.60;;;18.20;43.10;;;;;;5074117;28;20674;-86
2022/04/17 07:08:36;;;;;;;4.88;1.70;;;18.20;43.00;;;;;;5073650;28;20185;-85
2022/04/17 07:11:02;;;;;;;3.67;1.55;;;18.20;42.90;;;;;;5057177;28;20574;-86
2022/04/17 07:13:28;;;;;;;3.90;1.65;;;18.30;42.80;;;;;;5039812;28;20170;-85
2022/04/17 07:15:54;;;;;;;3.65;1.58;;;18.30;42.70;;;;;;5052436;28;20159;-85
2022/04/17 07:18:20;;;;;;;3.40;1.35;;;18.30;42.50;;;;;;5052337;28;20220;-85
2022/04/17 07:20:46;;;;;;;3.22;1.50;;;18.30;42.50;;;;;;5052997;28;20154;-85
2022/04/17 07:23:12;;;;;;;3.75;1.63;;;18.40;42.70;;;;;;5036655;28;20154;-85
2022/04/17 07:25:37;;;;;;;3.28;1.67;;;18.40;42.50;;;;;;5053491;28;20564;-85
2022/04/17 07:28:03;;;;;;;2.35;1.50;;;18.40;42.60;;;;;;5054901;28;20197;-86
2022/04/17 07:30:31;;;;;;;4.80;1.35;;;18.40;42.50;;;;;;5053451;28;20493;-84
2022/04/17 07:32:58;;;;;;;3.78;1.70;;;18.40;42.50;;;;;;5053938;28;20237;-85
2022/04/17 07:35:24;;;;;;;1.95;1.52;;;18.40;42.50;;;;;;5053718;28;20162;-84
2022/04/17 07:37:58;;;;;;;3.63;1.60;;;18.30;42.50;;;;;;5037222;28;20169;-86
2022/04/17 07:40:26;;;;;;;4.15;1.40;;;18.30;42.30;;;;;;5053993;28;20628;-86
2022/04/17 07:42:53;;;;;;;2.55;1.00;;;18.50;42.30;;;;;;5053740;28;20157;-85
2022/04/17 07:45:19;;;;;;;3.25;1.70;;;18.40;41.80;;;;;;5054294;28;20514;-86
2022/04/17 07:47:45;;;;;;;2.95;1.40;;;18.50;42.20;;;;;;5053114;28;20255;-85
2022/04/17 07:50:14;;;;;;;3.42;1.42;;;18.50;42.10;;;;;;5052939;28;20170;-86
2022/04/17 07:52:41;;;;;;;2.05;1.48;;;18.50;42.30;;;;;;5036958;28;20227;-86
2022/04/17 07:55:07;;;;;;;2.70;1.48;;;18.50;41.80;;;;;;5036933;28;20196;-86
2022/04/17 07:57:54;;;;;;;3.63;1.25;;;18.50;42.00;;;;;;5037412;28;20655;-85
2022/04/17 08:00:21;;;;;;;2.65;1.50;;;18.60;42.00;;;;;;5054495;28;20170;-85
2022/04/17 08:02:50;;;;;;;2.63;1.40;;;18.60;42.00;;;;;;5037196;28;20162;-86
2022/04/17 08:05:16;;;;;;;3.13;1.15;;;18.60;42.00;;;;;;5053511;28;20166;-87
2022/04/17 08:07:43;;;;;;;4.05;1.40;;;18.60;41.90;;;;;;5036819;28;20189;-87
2022/04/17 08:10:09;;;;;;;1.67;1.20;;;18.60;41.70;;;;;;5053199;28;20158;-86
2022/04/17 08:12:34;;;;;;;2.58;1.35;;;18.60;41.80;;;;;;5036593;28;20288;-86
2022/04/17 08:15:01;;;;;;;1.92;1.33;;;18.60;42.00;;;;;;5054135;28;20241;-86
2022/04/17 08:17:27;;;;;;;3.03;1.40;;;18.60;42.10;;;;;;5061789;28;20173;-86
2022/04/17 08:19:52;;;;;;;2.15;1.40;;;18.50;41.90;;;;;;5073034;28;20207;-85
2022/04/17 08:22:18;;;;;;;3.28;1.30;;;18.60;42.00;;;;;;5073419;28;20165;-86
2022/04/17 08:24:44;;;;;;;4.47;1.25;;;18.60;41.60;;;;;;5039434;28;20177;-86
2022/04/17 08:27:10;;;;;;;3.13;1.30;;;18.70;41.90;;;;;;5072496;28;20192;-86
2022/04/17 08:29:36;;;;;;;2.67;1.40;;;18.50;42.00;;;;;;5055665;28;20538;-86
2022/04/17 08:32:02;;;;;;;3.92;1.48;;;18.60;41.70;;;;;;5038923;28;20210;-87
2022/04/17 08:34:27;;;;;;;2.65;1.40;;;18.70;41.70;;;;;;5055332;28;20162;-86
2022/04/17 08:36:54;;;;;;;2.90;1.17;;;18.60;41.40;;;;;;5073529;28;20149;-86
2022/04/17 08:39:19;;;;;;;3.25;1.48;;;18.70;41.40;;;;;;5039737;28;20189;-86
2022/04/17 08:41:46;;;;;;;4.07;1.30;;;18.70;41.90;;;;;;5056329;28;20169;-86
2022/04/17 08:44:12;;;;;;;2.72;1.40;;;18.70;41.50;;;;;;5041630;28;20169;-86
2022/04/17 08:46:37;;;;;;;4.60;1.60;;;18.70;41.50;;;;;;5041938;28;20646;-86
2022/04/17 08:49:03;;;;;;;2.60;1.30;;;18.70;41.80;;;;;;5076859;28;20254;-87
2022/04/17 08:51:29;;;;;;;2.30;1.20;;;18.70;42.20;;;;;;5057805;28;20203;-86
2022/04/17 08:53:54;;;;;;;4.78;1.40;;;18.70;42.00;;;;;;5039679;28;20161;-84
2022/04/17 08:56:20;;;;;;;3.03;1.42;;;18.70;42.00;;;;;;5072987;28;20631;-86
2022/04/17 08:58:46;;;;;;;2.88;1.30;;;18.60;42.20;;;;;;5039579;28;20196;-86
2022/04/17 09:01:14;;;;;;;8.32;1.40;;;18.60;41.90;;;;;;5072884;28;20169;-86
2022/04/17 09:03:39;;;;;;;3.28;1.35;;;18.60;42.00;;;;;;5054627;28;20150;-85
2022/04/17 09:06:05;;;;;;;2.65;1.20;;;18.70;42.10;;;;;;5054129;28;20519;-87
2022/04/17 09:08:31;;;;;;;3.08;1.63;;;18.60;42.30;;;;;;5071571;28;20194;-85
2022/04/17 09:10:58;;;;;;;2.50;1.27;;;18.60;42.00;;;;;;5052820;28;20166;-85
2022/04/17 09:13:33;;;;;;;2.72;1.48;;;18.70;41.80;;;;;;5053818;28;20168;-85
2022/04/17 09:16:00;;;;;;;3.15;1.50;;;18.70;42.00;;;;;;5054991;28;20161;-86
2022/04/17 09:18:28;;;;;;;2.17;1.20;;;18.70;41.90;;;;;;5072731;28;20166;-85
2022/04/17 09:20:54;;;;;;;3.63;1.35;;;18.70;42.10;;;;;;5075262;28;20149;-85
2022/04/17 09:23:41;;;;;;;3.53;1.30;;;18.60;42.10;;;;;;5075036;28;20162;-85
2022/04/17 09:26:07;;;;;;;2.80;1.63;;;18.60;42.00;;;;;;5058518;28;20580;-85
2022/04/17 09:28:34;;;;;;;3.95;1.58;;;18.60;42.30;;;;;;5075457;28;20189;-85
2022/04/17 09:31:12;;;;;;;3.70;1.40;;;18.60;43.20;;;;;;5060135;28;20192;-85
2022/04/17 09:33:49;;;;;;;7.00;1.70;;;18.60;42.60;;;;;;5076449;28;20181;-86
2022/04/17 09:36:29;;;;;;;3.33;1.52;;;18.60;43.20;;;;;;5060342;28;20196;-85
2022/04/17 09:39:14;;;;;;;5.68;1.25;;;18.60;42.40;;;;;;5043617;28;20276;-86
2022/04/17 09:42:00;;;;;;;3.42;1.35;;;18.60;42.50;;;;;;5059186;28;20181;-85
2022/04/17 09:44:48;;;;;;;2.10;1.30;;;18.60;42.40;;;;;;5042638;28;20204;-86
2022/04/17 09:47:19;;;;;;;1.83;1.30;;;18.60;42.30;;;;;;5060032;28;20206;-86
2022/04/17 09:49:58;;;;;;;2.35;1.40;;;18.60;42.50;;;;;;5043101;28;20177;-86
2022/04/17 09:52:26;;;;;;;4.90;1.52;;;18.60;42.40;;;;;;5058161;28;20697;-85
2022/04/17 09:54:53;;;;;;;5.60;1.65;;;18.60;42.50;;;;;;5058179;28;20173;-86
2022/04/17 09:57:28;;;;;;;2.47;1.23;;;18.60;42.40;;;;;;5058241;28;20169;-86
2022/04/17 10:00:05;;;;;;;2.72;1.17;;;18.60;42.30;;;;;;5075892;28;20157;-86
2022/04/17 10:02:31;;;;;;;2.53;1.33;;;18.60;42.30;;;;;;5077051;28;20157;-85
2022/04/17 10:04:57;;;;;;;3.10;1.38;;;18.60;42.30;;;;;;5076300;28;20236;-86
2022/04/17 10:07:23;;;;;;;2.58;1.30;;;18.60;42.40;;;;;;5058436;28;20169;-85
2022/04/17 10:09:49;;;;;;;2.60;1.55;;;18.60;42.40;;;;;;5074655;28;20628;-86
2022/04/17 10:12:19;;;;;;;3.50;1.30;;;18.60;43.00;;;;;;5057986;28;20222;-86
2022/04/17 10:14:48;;;;;;;2.95;1.38;;;18.60;42.50;;;;;;5058596;28;20177;-86
2022/04/17 10:17:14;;;;;;;4.10;1.48;;;18.50;42.70;;;;;;5058091;28;20173;-86
2022/04/17 10:19:42;;;;;;;2.13;1.20;;;18.60;42.40;;;;;;5057813;28;20539;-86
2022/04/17 10:22:09;;;;;;;2.70;1.30;;;18.60;42.50;;;;;;5058150;28;20268;-85
2022/04/17 10:24:37;;;;;;;2.08;1.30;;;18.60;42.60;;;;;;5074475;28;20209;-86
2022/04/17 10:27:03;;;;;;;4.70;1.67;;;18.60;42.80;;;;;;5060304;28;20518;-85
2022/04/17 10:29:43;;;;;;;2.88;1.00;;;18.60;42.20;;;;;;5060816;28;20210;-85
2022/04/17 10:32:28;;;;;;;5.43;1.45;;;18.60;42.60;;;;;;5060301;28;20165;-86
2022/04/17 10:35:12;;;;;;;3.15;1.30;;;18.70;42.20;;;;;;5077701;28;20204;-86
2022/04/17 10:38:11;;;;;;;2.10;1.27;;;18.70;42.20;;;;;;5077782;28;20252;-86
2022/04/17 10:40:37;;;;;;;2.42;1.15;;;18.70;42.30;;;;;;5076949;28;20199;-87
2022/04/17 10:43:04;;;;;;;2.03;1.30;;;18.70;42.00;;;;;;5075777;28;20173;-87
2022/04/17 10:45:31;;;;;;;2.80;1.23;;;18.70;42.10;;;;;;5075613;28;20255;-86
2022/04/17 10:48:12;;;;;;;1.48;1.00;;;18.70;42.30;;;;;;5059033;28;20236;-87
2022/04/17 10:50:43;;;;;;;1.85;1.33;;;18.70;42.30;;;;;;5058928;28;20157;-86
2022/04/17 10:53:29;;;;;;;3.80;1.02;;;18.70;42.10;;;;;;5074787;28;20179;-87
2022/04/17 10:56:14;;;;;;;1.35;1.20;;;18.80;42.30;;;;;;5075178;28;20732;-87
2022/04/17 10:58:44;;;;;;;1.48;1.10;;;18.80;42.30;;;;;;5074619;28;20160;-87
2022/04/17 11:01:10;;;;;;;2.25;1.45;;;18.80;42.20;;;;;;5075120;28;20165;-86
2022/04/17 11:03:36;;;;;;;1.50;1.20;;;18.80;42.00;;;;;;5058127;28;20168;-86
2022/04/17 11:06:31;;;;;;;1.45;1.15;;;18.70;41.90;;;;;;5075024;28;20232;-86
2022/04/17 11:09:13;;;;;;;2.20;1.20;;;18.80;42.40;;;;;;5074896;28;20221;-86
2022/04/17 11:11:40;;;;;;;1.38;1.10;;;18.80;42.20;;;;;;5074313;28;20145;-86
2022/04/17 11:14:08;;;;;;;2.42;1.40;;;18.80;41.90;;;;;;5057071;28;20157;-86
2022/04/17 11:16:54;;;;;;;2.95;1.15;;;18.80;42.10;;;;;;5075087;28;20157;-86
2022/04/17 11:19:22;;;;;;;2.08;1.20;;;18.80;42.30;;;;;;5074266;28;20181;-86
2022/04/17 11:21:50;;;;;;;3.60;1.45;;;18.80;41.90;;;;;;5073687;28;20169;-86
2022/04/17 11:24:16;;;;;;;1.77;1.17;;;18.80;42.50;;;;;;5074123;28;20146;-86
2022/04/17 11:27:10;;;;;;;1.67;1.20;;;18.80;42.20;;;;;;5040900;28;20165;-86
2022/04/17 11:29:41;;;;;;;2.15;1.20;;;18.90;42.10;;;;;;5074865;28;20239;-86
2022/04/17 11:32:46;;;;;;;1.77;1.10;;;18.80;42.30;;;;;;5056516;28;20231;-86
2022/04/17 11:35:15;;;;;;;2.05;1.20;;;18.80;42.40;;;;;;5045145;28;20181;-86
2022/04/17 11:37:51;;;;;;;2.00;1.40;;;18.80;42.40;;;;;;5056010;28;20177;-87
2022/04/17 11:40:17;;;;;;;1.73;1.10;;;18.80;42.30;;;;;;5057394;28;20158;-86
2022/04/17 11:42:44;;;;;;;3.05;1.10;;;18.80;42.30;;;;;;5056647;28;20145;-86
2022/04/17 11:45:11;;;;;;;2.10;1.27;;;18.80;42.20;;;;;;5039958;28;20169;-86
2022/04/17 11:47:39;;;;;;;1.85;1.30;;;18.80;42.20;;;;;;5056302;28;20593;-86
2022/04/17 11:50:09;;;;;;;2.00;1.40;;;18.80;43.00;;;;;;5057270;28;20214;-86
2022/04/17 11:52:34;;;;;;;2.90;1.30;;;18.80;42.20;;;;;;5040040;28;20174;-87
2022/04/17 11:55:00;;;;;;;1.38;1.10;;;18.80;42.30;;;;;;5057494;28;20610;-86
2022/04/17 11:57:26;;;;;;;2.28;0.95;;;18.80;42.10;;;;;;5041329;28;20254;-86
2022/04/17 11:59:55;;;;;;;1.55;1.20;;;18.80;42.30;;;;;;5042645;28;20636;-86
2022/04/17 12:02:22;;;;;;;2.45;1.30;;;18.80;42.10;;;;;;5042786;28;20165;-86
2022/04/17 12:04:49;;;;;;;2.28;1.20;;;18.80;42.30;;;;;;5058521;28;20150;-86
2022/04/17 12:07:18;;;;;;;3.60;1.30;;;18.80;42.10;;;;;;5042128;28;20180;-83
2022/04/17 12:09:46;;;;;;;1.95;1.25;;;18.90;42.40;;;;;;5041750;28;20181;-84
2022/04/17 12:12:14;;;;;;;2.47;1.30;;;18.80;42.00;;;;;;5057807;28;20651;-86
2022/04/17 12:14:40;;;;;;;1.67;1.33;;;18.90;41.90;;;;;;5076067;28;20158;-87
2022/04/17 12:17:09;;;;;;;1.80;1.45;;;19.00;42.00;;;;;;5075165;28;20548;-86
2022/04/17 12:19:35;;;;;;;1.50;1.05;;;18.90;42.20;;;;;;5056228;28;20525;-88
2022/04/17 12:22:05;;;;;;;2.67;1.40;;;18.90;41.90;;;;;;5074258;28;20164;-86
2022/04/17 12:24:31;;;;;;;1.92;1.10;;;18.90;41.90;;;;;;5073111;28;20176;-86
2022/04/17 12:26:57;;;;;;;1.77;1.20;;;18.90;41.90;;;;;;5074184;28;20154;-86
2022/04/17 12:29:23;;;;;;;2.88;1.48;;;19.00;41.70;;;;;;5072951;28;20193;-86
2022/04/17 12:31:49;;;;;;;1.50;1.20;;;19.00;41.80;;;;;;5055798;28;20242;-86
2022/04/17 12:34:19;;;;;;;3.08;1.35;;;19.00;41.40;;;;;;5049406;28;20269;-86
2022/04/17 12:36:45;;;;;;;1.80;1.05;;;19.00;41.50;;;;;;5020943;28;20177;-87
2022/04/17 12:39:11;;;;;;;1.88;1.00;;;19.00;41.50;;;;;;5035946;28;20267;-86
2022/04/17 12:41:40;;;;;;;2.42;1.42;;;19.00;41.90;;;;;;5019388;28;20170;-86
2022/04/17 12:44:06;;;;;;;1.67;1.30;;;19.00;41.70;;;;;;5036119;28;20579;-86
2022/04/17 12:46:32;;;;;;;1.55;1.20;;;19.00;41.70;;;;;;5036015;28;20524;-86
2022/04/17 12:49:08;;;;;;;1.80;1.10;;;19.00;42.00;;;;;;5051606;28;20224;-87
2022/04/17 12:51:38;;;;;;;1.73;1.20;;;19.00;41.90;;;;;;5035429;28;20187;-86
2022/04/17 12:54:07;;;;;;;2.38;1.30;;;18.90;41.90;;;;;;5018900;28;20185;-86
2022/04/17 12:56:37;;;;;;;2.08;1.25;;;19.00;41.90;;;;;;5020819;28;20629;-84
2022/04/17 12:59:03;;;;;;;1.75;1.40;;;18.90;42.00;;;;;;5018220;28;20182;-86
2022/04/17 13:01:30;;;;;;;1.83;1.40;;;19.00;41.90;;;;;;5019085;28;20162;-86